createdAt,value
2022-10-09T00:02:04.620Z,26.93
2022-10-09T00:04:33.736Z,27.10
2022-10-09T00:07:02.958Z,27.03
2022-10-09T00:09:32.128Z,26.99
2022-10-09T00:12:01.034Z,26.75
2022-10-09T00:14:30.230Z,26.72
2022-10-09T00:16:59.298Z,26.76
2022-10-09T00:19:28.560Z,26.82
2022-10-09T00:21:57.617Z,26.70
2022-10-09T00:24:26.887Z,26.77
2022-10-09T00:26:56.011Z,26.70
2022-10-09T00:29:24.985Z,26.76
2022-10-09T00:31:53.873Z,26.74
2022-10-09T00:34:22.888Z,26.68
2022-10-09T00:36:51.829Z,26.73
2022-10-09T00:39:21.080Z,26.93
2022-10-09T00:41:50.149Z,26.93
2022-10-09T00:45:04.525Z,27.14
2022-10-09T00:47:40.762Z,27.08
2022-10-09T00:50:36.899Z,27.10
2022-10-09T00:53:06.273Z,26.89
2022-10-09T00:55:37.047Z,26.73
2022-10-09T00:58:06.971Z,26.41
2022-10-09T01:00:37.935Z,26.54
2022-10-09T01:03:08.237Z,26.65
2022-10-09T01:06:26.564Z,26.76
2022-10-09T01:09:29.028Z,26.70
2022-10-09T01:12:23.024Z,26.87
2022-10-09T01:15:09.757Z,26.78
2022-10-09T01:18:01.261Z,26.83
2022-10-09T01:20:33.801Z,26.71
2022-10-09T01:23:21.642Z,26.71
2022-10-09T01:25:59.582Z,26.68
2022-10-09T01:28:31.919Z,26.64
2022-10-09T01:31:03.112Z,26.76
2022-10-09T01:33:34.599Z,26.68
2022-10-09T01:36:06.184Z,26.70
2022-10-09T01:38:38.201Z,26.94
2022-10-09T01:41:09.504Z,26.88
2022-10-09T01:43:40.115Z,27.06
2022-10-09T01:46:35.684Z,27.06
2022-10-09T01:49:31.698Z,26.98
2022-10-09T01:52:13.213Z,27.09
2022-10-09T01:54:56.548Z,27.28
2022-10-09T01:57:40.648Z,27.47
2022-10-09T02:00:13.146Z,27.37
2022-10-09T02:02:44.791Z,27.18
2022-10-09T02:05:22.907Z,27.29
2022-10-09T02:07:53.386Z,27.33
2022-10-09T02:10:24.771Z,27.22
2022-10-09T02:13:02.405Z,27.17
2022-10-09T02:15:44.128Z,27.31
2022-10-09T02:18:16.641Z,27.37
2022-10-09T02:20:52.675Z,27.71
2022-10-09T02:23:25.545Z,27.31
2022-10-09T02:25:55.884Z,27.23
2022-10-09T02:28:26.032Z,27.22
2022-10-09T02:31:29.504Z,27.44
2022-10-09T02:34:01.557Z,27.52
2022-10-09T02:36:32.417Z,27.64
2022-10-09T02:39:03.548Z,27.60
2022-10-09T02:41:33.197Z,27.74
2022-10-09T02:44:03.255Z,27.60
2022-10-09T02:46:33.611Z,27.67
2022-10-09T02:49:03.911Z,28.01
2022-10-09T02:51:34.068Z,27.98
2022-10-09T02:54:04.255Z,27.96
2022-10-09T02:56:37.955Z,28.05
2022-10-09T02:59:08.945Z,28.27
2022-10-09T03:01:39.231Z,28.43
2022-10-09T03:04:08.761Z,28.26
2022-10-09T03:06:38.414Z,28.29
2022-10-09T03:09:08.604Z,28.30
2022-10-09T03:11:38.246Z,28.38
2022-10-09T03:14:07.804Z,28.43
2022-10-09T03:16:37.613Z,28.55
2022-10-09T03:19:07.707Z,28.29
2022-10-09T03:21:36.869Z,28.46
2022-10-09T03:24:07.012Z,28.77
2022-10-09T03:26:37.012Z,28.64
2022-10-09T03:29:06.504Z,28.62
2022-10-09T03:31:52.921Z,28.61
2022-10-09T03:34:23.443Z,28.65
2022-10-09T03:36:52.854Z,28.80
2022-10-09T03:39:22.568Z,28.89
2022-10-09T03:41:56.694Z,28.72
2022-10-09T03:44:28.072Z,28.75
2022-10-09T03:46:59.159Z,28.76
2022-10-09T03:49:29.617Z,28.87
2022-10-09T03:51:59.147Z,29.02
2022-10-09T03:54:28.490Z,29.01
2022-10-09T03:56:58.429Z,29.08
2022-10-09T03:59:28.192Z,29.16
2022-10-09T04:01:59.763Z,29.39
2022-10-09T04:04:29.178Z,29.29
2022-10-09T04:06:58.919Z,29.27
2022-10-09T04:09:28.362Z,29.51
2022-10-09T04:11:57.675Z,29.46
2022-10-09T04:14:27.643Z,29.33
2022-10-09T04:16:57.110Z,29.39
2022-10-09T04:19:26.964Z,29.46
2022-10-09T04:21:56.696Z,29.28
2022-10-09T04:24:26.114Z,29.68
2022-10-09T04:26:55.877Z,29.78
2022-10-09T04:29:25.615Z,29.89
2022-10-09T04:31:54.695Z,29.84
2022-10-09T04:34:23.976Z,29.91
2022-10-09T04:36:52.987Z,30.02
2022-10-09T04:39:22.311Z,29.76
2022-10-09T04:41:51.243Z,30.11
2022-10-09T04:44:20.517Z,30.09
2022-10-09T04:46:52.813Z,30.28
2022-10-09T04:49:22.147Z,30.26
2022-10-09T04:51:51.121Z,30.01
2022-10-09T04:54:20.405Z,30.20
2022-10-09T04:56:49.400Z,30.35
2022-10-09T04:59:18.737Z,30.50
2022-10-09T05:01:48.003Z,30.51
2022-10-09T05:04:17.347Z,30.57
2022-10-09T05:06:46.398Z,30.43
2022-10-09T05:09:15.561Z,30.44
2022-10-09T05:11:44.543Z,30.40
2022-10-09T05:14:13.814Z,30.20
2022-10-09T05:17:08.316Z,30.32
2022-10-09T05:19:33.384Z,30.61
2022-10-09T05:22:02.802Z,30.97
2022-10-09T05:24:32.093Z,30.77
2022-10-09T05:27:01.173Z,31.12
2022-10-09T05:29:30.653Z,31.15
2022-10-09T05:31:59.553Z,31.22
2022-10-09T05:34:28.802Z,30.95
2022-10-09T05:36:57.943Z,31.22
2022-10-09T05:39:27.129Z,31.30
2022-10-09T05:41:56.106Z,30.72
2022-10-09T05:44:25.900Z,30.91
2022-10-09T05:46:55.018Z,31.31
2022-10-09T05:49:24.091Z,31.30
2022-10-09T05:51:53.161Z,31.22
2022-10-09T05:54:22.247Z,31.51
2022-10-09T05:56:51.680Z,31.74
2022-10-09T05:59:21.243Z,31.32
2022-10-09T06:01:53.023Z,31.49
2022-10-09T06:04:24.549Z,31.89
2022-10-09T06:06:54.018Z,31.94
2022-10-09T06:09:25.265Z,32.06
2022-10-09T06:11:56.162Z,32.15
2022-10-09T06:14:26.260Z,32.05
2022-10-09T06:16:56.920Z,32.31
2022-10-09T06:19:26.407Z,31.99
2022-10-09T06:21:55.442Z,32.29
2022-10-09T06:24:28.984Z,32.41
2022-10-09T06:26:59.542Z,32.24
2022-10-09T06:29:28.910Z,32.33
2022-10-09T06:31:58.331Z,32.29
2022-10-09T06:34:27.264Z,32.19
2022-10-09T06:36:57.021Z,32.38
2022-10-09T06:39:27.392Z,32.12
2022-10-09T06:41:56.444Z,32.56
2022-10-09T06:44:33.914Z,32.32
2022-10-09T06:47:03.115Z,32.48
2022-10-09T06:49:32.120Z,32.09
2022-10-09T06:52:01.581Z,31.99
2022-10-09T06:54:30.540Z,32.11
2022-10-09T06:56:59.702Z,31.89
2022-10-09T06:59:28.936Z,31.66
2022-10-09T07:01:58.450Z,31.91
2022-10-09T07:04:27.990Z,32.26
2022-10-09T07:06:57.516Z,32.28
2022-10-09T07:09:26.407Z,31.99
2022-10-09T07:11:55.511Z,31.88
2022-10-09T07:14:24.701Z,31.94
2022-10-09T07:16:54.520Z,32.01
2022-10-09T07:19:23.724Z,31.91
2022-10-09T07:21:54.300Z,31.85
2022-10-09T07:24:25.665Z,32.04
2022-10-09T07:26:58.788Z,32.07
2022-10-09T07:29:27.879Z,32.29
2022-10-09T07:31:56.906Z,32.51
2022-10-09T07:34:26.433Z,32.38
2022-10-09T07:36:55.445Z,32.47
2022-10-09T07:39:24.686Z,32.35
2022-10-09T07:41:54.073Z,32.32
2022-10-09T07:44:23.488Z,32.28
2022-10-09T07:46:52.792Z,32.08
2022-10-09T07:49:22.250Z,31.84
2022-10-09T07:51:51.169Z,31.60
2022-10-09T07:54:20.621Z,31.97
2022-10-09T07:56:49.951Z,31.76
2022-10-09T07:59:19.613Z,31.89
2022-10-09T08:01:48.771Z,32.18
2022-10-09T08:04:21.411Z,32.30
2022-10-09T08:06:50.819Z,32.57
2022-10-09T08:09:20.022Z,32.69
2022-10-09T08:11:49.397Z,32.79
2022-10-09T08:14:19.786Z,32.97
2022-10-09T08:16:49.784Z,32.86
2022-10-09T08:19:19.145Z,32.93
2022-10-09T08:21:48.569Z,33.06
2022-10-09T08:24:18.090Z,32.68
2022-10-09T08:26:47.407Z,32.60
2022-10-09T08:29:17.658Z,32.12
2022-10-09T08:31:47.373Z,32.40
2022-10-09T08:34:16.431Z,32.49
2022-10-09T08:36:46.184Z,32.74
2022-10-09T08:39:15.831Z,32.38
2022-10-09T08:41:55.733Z,32.30
2022-10-09T08:44:47.815Z,32.31
2022-10-09T08:47:39.523Z,32.28
2022-10-09T08:50:17.852Z,32.38
2022-10-09T08:52:57.058Z,32.64
2022-10-09T08:55:49.010Z,32.67
2022-10-09T08:58:21.090Z,32.71
2022-10-09T09:00:59.613Z,32.34
2022-10-09T09:03:50.222Z,32.56
2022-10-09T09:06:46.811Z,32.67
2022-10-09T09:09:57.645Z,32.50
2022-10-09T09:12:29.533Z,32.11
2022-10-09T09:15:20.063Z,32.70
2022-10-09T09:18:22.124Z,32.28
2022-10-09T09:20:57.004Z,32.34
2022-10-09T09:23:52.736Z,32.70
2022-10-09T09:26:23.817Z,32.57
2022-10-09T09:28:58.661Z,32.64
2022-10-09T09:31:32.695Z,32.72
2022-10-09T09:34:24.545Z,32.74
2022-10-09T09:36:59.310Z,32.86
2022-10-09T09:42:23.817Z,32.61
2022-10-09T09:45:08.456Z,32.72
2022-10-09T09:47:47.294Z,32.86
2022-10-09T09:50:42.356Z,32.56
2022-10-09T09:53:16.079Z,32.58
2022-10-09T09:55:45.995Z,32.62
2022-10-09T09:58:20.245Z,32.69
2022-10-09T10:01:05.115Z,32.45
2022-10-09T10:03:36.698Z,32.33
2022-10-09T10:06:07.249Z,32.41
2022-10-09T10:08:37.001Z,32.53
2022-10-09T10:11:09.833Z,32.62
2022-10-09T10:13:47.446Z,32.65
2022-10-09T10:16:29.842Z,32.71
2022-10-09T10:18:59.985Z,32.60
2022-10-09T10:21:43.554Z,32.53
2022-10-09T10:24:21.577Z,32.53
2022-10-09T10:26:59.961Z,32.62
2022-10-09T10:29:45.874Z,32.48
2022-10-09T10:32:36.144Z,32.61
2022-10-09T10:35:16.198Z,32.48
2022-10-09T10:37:55.122Z,32.55
2022-10-09T10:40:34.476Z,32.37
2022-10-09T10:43:12.546Z,32.40
2022-10-09T10:46:00.237Z,32.50
2022-10-09T10:48:34.638Z,32.37
2022-10-09T10:51:26.149Z,32.32
2022-10-09T10:54:10.452Z,32.31
2022-10-09T10:56:44.799Z,32.35
2022-10-09T10:59:44.388Z,32.47
2022-10-09T11:02:41.879Z,32.41
2022-10-09T11:05:28.599Z,32.22
2022-10-09T11:08:30.138Z,32.25
2022-10-09T11:11:17.809Z,32.25
2022-10-09T11:14:10.287Z,32.26
2022-10-09T11:16:39.222Z,32.29
2022-10-09T11:19:19.059Z,31.92
2022-10-09T11:22:25.452Z,32.16
2022-10-09T11:25:05.956Z,32.19
2022-10-09T11:27:35.783Z,31.89
2022-10-09T11:30:12.311Z,31.77
2022-10-09T11:32:55.882Z,31.98
2022-10-09T11:35:28.352Z,31.93
2022-10-09T11:38:08.124Z,32.02
2022-10-09T11:40:47.405Z,31.95
2022-10-09T11:43:29.672Z,31.88
2022-10-09T11:46:11.471Z,31.98
2022-10-09T11:48:55.473Z,31.78
2022-10-09T11:51:39.735Z,31.69
2022-10-09T11:54:19.903Z,31.79
2022-10-09T11:57:00.911Z,31.76
2022-10-09T11:59:32.646Z,31.56
2022-10-09T12:02:15.303Z,31.48
2022-10-09T12:04:54.462Z,31.37
2022-10-09T12:07:40.260Z,31.43
2022-10-09T12:10:37.641Z,31.48
2022-10-09T12:13:09.425Z,31.45
2022-10-09T12:15:41.211Z,31.32
2022-10-09T12:18:26.413Z,31.41
2022-10-09T12:20:57.872Z,31.12
2022-10-09T12:23:33.487Z,31.22
2022-10-09T12:26:04.758Z,31.16
2022-10-09T12:28:44.962Z,31.24
2022-10-09T12:31:29.506Z,31.28
2022-10-09T12:34:33.945Z,31.21
2022-10-09T12:37:15.281Z,31.16
2022-10-09T12:39:46.086Z,31.00
2022-10-09T12:42:26.293Z,31.09
2022-10-09T12:44:57.186Z,30.87
2022-10-09T12:47:29.995Z,30.85
2022-10-09T12:50:17.934Z,30.92
2022-10-09T12:52:51.555Z,30.87
2022-10-09T12:55:37.503Z,30.86
2022-10-09T12:58:17.947Z,30.79
2022-10-09T13:00:50.674Z,30.59
2022-10-09T13:03:38.312Z,30.65
2022-10-09T13:06:19.840Z,30.60
2022-10-09T13:08:56.913Z,30.55
2022-10-09T13:11:34.716Z,30.47
2022-10-09T13:14:04.157Z,30.39
2022-10-09T13:16:44.701Z,30.44
2022-10-09T13:19:36.393Z,30.38
2022-10-09T13:22:35.055Z,30.49
2022-10-09T13:25:06.656Z,30.39
2022-10-09T13:27:41.160Z,30.48
2022-10-09T13:30:12.696Z,30.49
2022-10-09T13:32:41.909Z,30.42
2022-10-09T13:35:11.493Z,30.34
2022-10-09T13:37:41.041Z,30.31
2022-10-09T13:40:19.616Z,30.42
2022-10-09T13:42:57.594Z,30.38
2022-10-09T13:45:27.762Z,30.24
2022-10-09T13:47:56.740Z,30.20
2022-10-09T13:50:25.981Z,30.18
2022-10-09T13:52:55.192Z,30.18
2022-10-09T13:55:24.456Z,30.15
2022-10-09T13:57:54.735Z,30.07
2022-10-09T14:00:24.349Z,30.06
2022-10-09T14:02:53.344Z,30.04
2022-10-09T14:05:23.299Z,30.07
2022-10-09T14:07:52.548Z,30.09
2022-10-09T14:10:24.189Z,29.96
2022-10-09T14:12:53.909Z,29.97
2022-10-09T14:15:22.963Z,29.97
2022-10-09T14:17:52.343Z,29.88
2022-10-09T14:20:21.696Z,29.85
2022-10-09T14:22:51.351Z,29.79
2022-10-09T14:25:20.702Z,29.94
2022-10-09T14:27:50.177Z,29.81
2022-10-09T14:30:19.631Z,29.73
2022-10-09T14:32:49.154Z,29.64
2022-10-09T14:35:21.498Z,29.54
2022-10-09T14:37:51.062Z,29.53
2022-10-09T14:40:20.305Z,29.49
2022-10-09T14:42:49.983Z,29.40
2022-10-09T14:45:19.473Z,29.28
2022-10-09T14:47:48.498Z,29.16
2022-10-09T14:50:17.952Z,29.20
2022-10-09T14:52:47.207Z,29.20
2022-10-09T14:55:16.829Z,29.32
2022-10-09T14:57:45.844Z,29.48
2022-10-09T15:00:15.944Z,29.52
2022-10-09T15:02:45.555Z,29.62
2022-10-09T15:05:14.625Z,29.61
2022-10-09T15:07:43.917Z,29.67
2022-10-09T15:10:13.465Z,29.72
2022-10-09T15:12:43.169Z,29.71
2022-10-09T15:15:12.375Z,29.70
2022-10-09T15:17:41.648Z,29.67
2022-10-09T15:20:11.663Z,29.84
2022-10-09T15:22:41.359Z,29.82
2022-10-09T15:25:11.833Z,29.89
2022-10-09T15:27:41.353Z,29.84
2022-10-09T15:30:11.243Z,29.74
2022-10-09T15:32:40.664Z,29.79
2022-10-09T15:35:11.018Z,29.76
2022-10-09T15:37:45.531Z,29.88
2022-10-09T15:40:15.875Z,29.73
2022-10-09T15:42:51.580Z,29.64
2022-10-09T15:45:22.235Z,29.70
2022-10-09T15:47:54.389Z,29.75
2022-10-09T15:50:25.030Z,29.70
2022-10-09T15:52:58.510Z,29.70
2022-10-09T15:55:29.410Z,29.58
2022-10-09T15:57:59.193Z,29.49
2022-10-09T16:00:28.173Z,29.46
2022-10-09T16:02:57.517Z,29.50
2022-10-09T16:05:26.694Z,29.63
2022-10-09T16:07:55.986Z,29.57
2022-10-09T16:10:25.114Z,29.60
2022-10-09T16:12:54.501Z,29.54
2022-10-09T16:15:23.622Z,29.47
2022-10-09T16:17:53.027Z,29.59
2022-10-09T16:20:22.759Z,29.53
2022-10-09T16:22:52.252Z,29.59
2022-10-09T16:25:21.689Z,29.56
2022-10-09T16:27:51.320Z,29.66
2022-10-09T16:30:20.665Z,29.57
2022-10-09T16:32:51.012Z,29.68
2022-10-09T16:35:20.768Z,29.61
2022-10-09T16:37:49.812Z,29.63
2022-10-09T16:40:19.193Z,29.67
2022-10-09T16:42:49.378Z,29.65
2022-10-09T16:45:19.131Z,29.63
2022-10-09T16:47:49.819Z,29.74
2022-10-09T16:50:19.215Z,29.59
2022-10-09T16:52:48.311Z,29.61
2022-10-09T16:55:17.982Z,29.58
2022-10-09T16:57:47.356Z,29.49
2022-10-09T17:00:19.381Z,29.54
2022-10-09T17:02:49.101Z,29.54
2022-10-09T17:05:18.440Z,29.55
2022-10-09T17:07:48.150Z,29.54
2022-10-09T17:10:17.503Z,29.48
2022-10-09T17:12:46.864Z,29.53
2022-10-09T17:15:15.996Z,29.42
2022-10-09T17:17:45.445Z,29.56
2022-10-09T17:20:14.488Z,29.51
2022-10-09T17:22:43.839Z,29.34
2022-10-09T17:25:14.258Z,29.49
2022-10-09T17:27:43.636Z,29.34
2022-10-09T17:30:13.388Z,29.35
2022-10-09T17:32:42.835Z,29.32
2022-10-09T17:35:12.018Z,29.32
2022-10-09T17:37:41.410Z,29.28
2022-10-09T17:40:11.035Z,29.35
2022-10-09T17:42:40.516Z,29.28
2022-10-09T17:45:10.636Z,29.23
2022-10-09T17:47:40.298Z,29.21
2022-10-09T17:50:09.739Z,29.17
2022-10-09T17:52:38.804Z,29.23
2022-10-09T17:55:08.646Z,29.16
2022-10-09T17:57:37.760Z,29.18
2022-10-09T18:00:07.426Z,29.01
2022-10-09T18:02:36.523Z,29.05
2022-10-09T18:05:05.960Z,29.11
2022-10-09T18:07:34.942Z,29.01
2022-10-09T18:10:04.222Z,29.06
2022-10-09T18:12:33.776Z,29.31
2022-10-09T18:15:06.128Z,29.21
2022-10-09T18:17:36.313Z,29.23
2022-10-09T18:20:06.249Z,29.25
2022-10-09T18:22:38.067Z,29.46
2022-10-09T18:25:08.084Z,29.28
2022-10-09T18:27:37.385Z,29.22
2022-10-09T18:30:07.367Z,29.26
2022-10-09T18:32:39.243Z,29.18
2022-10-09T18:35:08.895Z,29.24
2022-10-09T18:37:38.195Z,29.24
2022-10-09T18:40:09.753Z,29.41
2022-10-09T18:42:39.196Z,29.26
2022-10-09T18:45:10.922Z,29.20
2022-10-09T18:47:41.016Z,29.40
2022-10-09T18:50:12.625Z,29.45
2022-10-09T18:52:44.376Z,29.42
2022-10-09T18:55:16.315Z,29.51
2022-10-09T18:57:48.219Z,29.49
2022-10-09T19:00:21.199Z,29.41
2022-10-09T19:02:51.780Z,29.32
2022-10-09T19:05:24.939Z,29.20
2022-10-09T19:07:54.162Z,29.17
2022-10-09T19:10:23.676Z,29.27
2022-10-09T19:12:53.682Z,29.32
2022-10-09T19:15:23.405Z,29.25
2022-10-09T19:17:52.808Z,29.15
2022-10-09T19:20:23.288Z,29.29
2022-10-09T19:22:52.426Z,29.21
2022-10-09T19:25:21.570Z,29.10
2022-10-09T19:27:51.142Z,29.17
2022-10-09T19:30:21.046Z,29.09
2022-10-09T19:32:51.432Z,29.13
2022-10-09T19:35:21.307Z,29.00
2022-10-09T19:37:50.633Z,28.91
2022-10-09T19:40:23.067Z,28.94
2022-10-09T19:42:52.262Z,28.92
2022-10-09T19:45:21.239Z,28.99
2022-10-09T19:47:54.161Z,28.94
2022-10-09T19:50:25.113Z,28.85
2022-10-09T19:52:55.168Z,28.83
2022-10-09T19:55:30.119Z,28.74
2022-10-09T19:58:00.223Z,28.74
2022-10-09T20:00:30.717Z,28.68
2022-10-09T20:03:02.946Z,28.59
2022-10-09T20:05:34.314Z,28.67
2022-10-09T20:08:05.179Z,28.82
2022-10-09T20:10:38.282Z,28.72
2022-10-09T20:13:08.178Z,28.77
2022-10-09T20:15:44.766Z,28.71
2022-10-09T20:18:15.192Z,28.61
2022-10-09T20:20:49.084Z,28.75
2022-10-09T20:23:18.548Z,28.63
2022-10-09T20:25:50.778Z,28.67
2022-10-09T20:28:20.505Z,28.79
2022-10-09T20:30:58.893Z,28.75
2022-10-09T20:33:32.516Z,28.50
2022-10-09T20:36:01.876Z,28.54
2022-10-09T20:38:31.052Z,28.59
2022-10-09T20:41:08.763Z,28.61
2022-10-09T20:43:38.540Z,28.47
2022-10-09T20:46:09.536Z,28.52
2022-10-09T20:48:39.194Z,28.54
2022-10-09T20:51:08.409Z,28.58
2022-10-09T20:53:37.937Z,28.52
2022-10-09T20:56:09.826Z,28.58
2022-10-09T20:58:40.171Z,28.57
2022-10-09T21:01:11.196Z,28.56
2022-10-09T21:03:40.732Z,28.64
2022-10-09T21:06:12.388Z,28.60
2022-10-09T21:08:42.663Z,28.40
2022-10-09T21:11:14.161Z,28.51
2022-10-09T21:13:43.962Z,28.50
2022-10-09T21:16:15.659Z,28.53
2022-10-09T21:18:45.140Z,28.42
2022-10-09T21:21:20.650Z,28.45
2022-10-09T21:23:53.570Z,28.37
2022-10-09T21:26:24.268Z,28.29
2022-10-09T21:28:58.431Z,28.33
2022-10-09T21:31:30.926Z,28.40
2022-10-09T21:34:03.409Z,28.36
2022-10-09T21:37:20.892Z,28.24
2022-10-09T21:39:45.518Z,28.16
2022-10-09T21:42:15.126Z,28.13
2022-10-09T21:44:43.972Z,28.10
2022-10-09T21:47:19.596Z,28.29
2022-10-09T21:49:48.682Z,28.20
2022-10-09T21:52:18.287Z,28.24
2022-10-09T21:54:50.006Z,28.28
2022-10-09T21:57:19.244Z,28.19
2022-10-09T21:59:49.026Z,28.18
2022-10-09T22:02:20.201Z,28.29
2022-10-09T22:04:52.607Z,28.15
2022-10-09T22:07:21.936Z,28.16
2022-10-09T22:09:50.824Z,27.98
2022-10-09T22:12:20.689Z,28.07
2022-10-09T22:14:50.175Z,28.07
2022-10-09T22:17:19.470Z,28.02
2022-10-09T22:19:48.479Z,27.95
2022-10-09T22:22:17.938Z,27.85
2022-10-09T22:24:46.858Z,27.93
2022-10-09T22:27:16.291Z,27.97
2022-10-09T22:29:45.362Z,28.00
2022-10-09T22:32:14.680Z,28.03
2022-10-09T22:34:43.611Z,27.88
2022-10-09T22:37:12.912Z,27.86
2022-10-09T22:39:41.714Z,27.89
2022-10-09T22:42:11.286Z,27.72
2022-10-09T22:44:40.273Z,27.71
2022-10-09T22:47:10.620Z,27.83
2022-10-09T22:49:43.735Z,27.70
2022-10-09T22:52:26.002Z,27.70
2022-10-09T22:54:57.423Z,27.78
2022-10-09T22:57:26.790Z,27.70
2022-10-09T22:59:56.137Z,27.63
2022-10-09T23:02:35.454Z,27.77
2022-10-09T23:05:08.585Z,27.82
2022-10-09T23:07:40.458Z,27.62
2022-10-09T23:10:09.820Z,27.64
2022-10-09T23:12:38.800Z,27.55
2022-10-09T23:15:08.409Z,27.44
2022-10-09T23:17:37.366Z,27.64
2022-10-09T23:20:06.985Z,27.50
2022-10-09T23:22:36.058Z,27.44
2022-10-09T23:25:05.526Z,27.44
2022-10-09T23:27:34.654Z,27.38
2022-10-09T23:30:03.970Z,27.40
2022-10-09T23:32:32.875Z,27.36
2022-10-09T23:35:02.519Z,27.32
2022-10-09T23:37:31.725Z,27.33
2022-10-09T23:40:00.833Z,27.38
2022-10-09T23:42:29.786Z,27.41
2022-10-09T23:44:59.107Z,27.38
2022-10-09T23:47:28.185Z,27.23
2022-10-09T23:50:02.388Z,27.54
2022-10-09T23:52:31.412Z,27.48
2022-10-09T23:55:00.594Z,27.53
2022-10-09T23:57:30.519Z,27.46
2022-10-09T23:59:59.412Z,27.41
